SWA2434 KHRL-KAUS
Flight info
| Callsign | SWA2434 |
|---|---|
| Flight time | 0h 46m |
| Altitude | 38000 |
| Route | CRP HOOLR DXEEE3 |
| Aircraft | B737/M-SDE2E3FGHIRWXY/LB1 |
Departure
| Time | 2026-05-01 10:13 |
|---|---|
| Airport | Valley International Airport (KHRL) |
Arrival
| Time | 2026-05-01 10:59 |
|---|---|
| Airport | Austin Bergstrom International Airport (KAUS) |
| Time | Latitude | Longitude | Altitude | Speed | Heading |
|---|---|---|---|---|---|
| 2026-05-01 09:52 | 26.22434 | -97.66143 | 44 ft | 0 kts | 270° |
| 2026-05-01 10:04 | 26.22434 | -97.66130 | 44 ft | 2 kts | 270° |
| 2026-05-01 10:04 | 26.22434 | -97.66112 | 44 ft | 2 kts | 270° |
| 2026-05-01 10:05 | 26.22434 | -97.66094 | 44 ft | 2 kts | 270° |
| 2026-05-01 10:05 | 26.22434 | -97.66076 | 44 ft | 2 kts | 275° |
| 2026-05-01 10:05 | 26.22431 | -97.66059 | 44 ft | 2 kts | 289° |
| 2026-05-01 10:05 | 26.22425 | -97.66043 | 44 ft | 2 kts | 313° |
| 2026-05-01 10:06 | 26.22414 | -97.66034 | 44 ft | 2 kts | 354° |
| 2026-05-01 10:06 | 26.22409 | -97.66034 | 44 ft | 0 kts | 0° |
| 2026-05-01 10:09 | 26.22410 | -97.66034 | 44 ft | 1 kts | 360° |
| 2026-05-01 10:09 | 26.22415 | -97.66048 | 44 ft | 4 kts | 246° |
| 2026-05-01 10:09 | 26.22365 | -97.66048 | 44 ft | 11 kts | 175° |
| 2026-05-01 10:10 | 26.22262 | -97.66039 | 44 ft | 18 kts | 175° |
| 2026-05-01 10:10 | 26.22127 | -97.66037 | 44 ft | 20 kts | 185° |
| 2026-05-01 10:10 | 26.21862 | -97.66041 | 44 ft | 12 kts | 143° |
| 2026-05-01 10:11 | 26.21796 | -97.65951 | 44 ft | 18 kts | 126° |
| 2026-05-01 10:11 | 26.21788 | -97.65887 | 44 ft | 2 kts | 14° |
| 2026-05-01 10:11 | 26.21794 | -97.65886 | 44 ft | 0 kts | 7° |
| 2026-05-01 10:12 | 26.21795 | -97.65886 | 44 ft | 0 kts | 7° |
| 2026-05-01 10:12 | 26.21997 | -97.65866 | 44 ft | 72 kts | 358° |
| 2026-05-01 10:12 | 26.23951 | -97.65835 | 534 ft | 175 kts | 0° |
| 2026-05-01 10:13 | 26.25230 | -97.65846 | 1322 ft | 190 kts | 4° |
| 2026-05-01 10:13 | 26.26487 | -97.65703 | 2506 ft | 173 kts | 8° |
| 2026-05-01 10:13 | 26.27708 | -97.65548 | 3197 ft | 188 kts | 7° |
| 2026-05-01 10:14 | 26.30728 | -97.65161 | 3996 ft | 249 kts | 5° |
| 2026-05-01 10:14 | 26.32576 | -97.64925 | 4360 ft | 278 kts | 4° |
| 2026-05-01 10:14 | 26.34518 | -97.64675 | 5128 ft | 283 kts | 3° |
| 2026-05-01 10:14 | 26.36478 | -97.64425 | 5974 ft | 284 kts | 2° |
| 2026-05-01 10:15 | 26.38466 | -97.64172 | 6567 ft | 296 kts | 2° |
| 2026-05-01 10:15 | 26.40573 | -97.63903 | 7060 ft | 316 kts | 2° |
| 2026-05-01 10:15 | 26.42755 | -97.63624 | 8180 ft | 317 kts | 2° |
| 2026-05-01 10:15 | 26.44981 | -97.63340 | 9247 ft | 322 kts | 2° |
| 2026-05-01 10:16 | 26.47226 | -97.63051 | 10231 ft | 327 kts | 1° |
| 2026-05-01 10:16 | 26.49534 | -97.62756 | 11119 ft | 337 kts | 1° |
| 2026-05-01 10:16 | 26.54453 | -97.62127 | 12176 ft | 374 kts | 1° |
| 2026-05-01 10:17 | 26.57065 | -97.61793 | 12982 ft | 380 kts | 1° |
| 2026-05-01 10:17 | 26.62352 | -97.61117 | 14735 ft | 387 kts | 1° |
| 2026-05-01 10:17 | 26.65038 | -97.60772 | 15560 ft | 391 kts | 1° |
| 2026-05-01 10:18 | 26.70497 | -97.60071 | 17227 ft | 397 kts | 0° |
| 2026-05-01 10:18 | 26.73252 | -97.59716 | 18021 ft | 401 kts | 359° |
| 2026-05-01 10:18 | 26.76040 | -97.59357 | 18850 ft | 402 kts | 359° |
| 2026-05-01 10:19 | 26.78819 | -97.59000 | 19681 ft | 404 kts | 358° |
| 2026-05-01 10:19 | 26.81612 | -97.58642 | 20380 ft | 409 kts | 358° |
| 2026-05-01 10:19 | 26.84456 | -97.58277 | 21065 ft | 413 kts | 358° |
| 2026-05-01 10:20 | 26.90192 | -97.57538 | 22352 ft | 421 kts | 358° |
| 2026-05-01 10:20 | 26.93124 | -97.57160 | 22969 ft | 424 kts | 358° |
| 2026-05-01 10:20 | 26.96050 | -97.56783 | 23586 ft | 427 kts | 358° |
| 2026-05-01 10:20 | 26.99014 | -97.56401 | 24175 ft | 431 kts | 358° |
| 2026-05-01 10:21 | 27.02050 | -97.56009 | 24751 ft | 434 kts | 358° |
| 2026-05-01 10:21 | 27.08079 | -97.55229 | 25786 ft | 441 kts | 358° |
| 2026-05-01 10:21 | 27.11134 | -97.54834 | 26284 ft | 444 kts | 358° |
| 2026-05-01 10:22 | 27.17246 | -97.54043 | 27235 ft | 450 kts | 357° |
| 2026-05-01 10:22 | 27.23491 | -97.53233 | 28125 ft | 456 kts | 357° |
| 2026-05-01 10:23 | 27.26646 | -97.52824 | 28532 ft | 459 kts | 357° |
| 2026-05-01 10:23 | 27.33060 | -97.51991 | 29330 ft | 464 kts | 357° |
| 2026-05-01 10:23 | 27.36275 | -97.51573 | 29731 ft | 466 kts | 357° |
| 2026-05-01 10:24 | 27.42747 | -97.50731 | 30436 ft | 471 kts | 356° |
| 2026-05-01 10:24 | 27.49319 | -97.49875 | 31092 ft | 476 kts | 356° |
| 2026-05-01 10:25 | 27.55916 | -97.49015 | 31995 ft | 473 kts | 357° |
| 2026-05-01 10:25 | 27.62444 | -97.48164 | 32863 ft | 472 kts | 357° |
| 2026-05-01 10:26 | 27.65688 | -97.47741 | 33296 ft | 471 kts | 357° |
| 2026-05-01 10:26 | 27.68910 | -97.47319 | 33745 ft | 469 kts | 358° |
| 2026-05-01 10:26 | 27.75366 | -97.46474 | 34680 ft | 466 kts | 358° |
| 2026-05-01 10:27 | 27.81823 | -97.45626 | 35487 ft | 464 kts | 358° |
| 2026-05-01 10:27 | 27.88136 | -97.45302 | 36293 ft | 444 kts | 343° |
| 2026-05-01 10:28 | 27.91055 | -97.46223 | 36670 ft | 429 kts | 329° |
| 2026-05-01 10:28 | 27.96104 | -97.49623 | 37323 ft | 419 kts | 320° |
| 2026-05-01 10:28 | 27.98525 | -97.51507 | 37696 ft | 416 kts | 319° |
| 2026-05-01 10:29 | 28.03269 | -97.55303 | 37866 ft | 420 kts | 318° |
| 2026-05-01 10:29 | 28.05651 | -97.57236 | 37873 ft | 419 kts | 318° |
| 2026-05-01 10:30 | 28.14986 | -97.64901 | 37883 ft | 413 kts | 317° |
| 2026-05-01 10:31 | 28.24254 | -97.72562 | 37902 ft | 412 kts | 317° |
| 2026-05-01 10:32 | 28.31137 | -97.78276 | 37902 ft | 409 kts | 317° |
| 2026-05-01 10:33 | 28.40372 | -97.85972 | 37909 ft | 410 kts | 317° |
| 2026-05-01 10:34 | 28.47273 | -97.91737 | 37907 ft | 410 kts | 317° |
| 2026-05-01 10:34 | 28.51851 | -97.95568 | 37915 ft | 409 kts | 317° |
| 2026-05-01 10:35 | 28.58704 | -98.01310 | 37926 ft | 408 kts | 317° |
| 2026-05-01 10:35 | 28.63298 | -98.05166 | 37930 ft | 408 kts | 317° |
| 2026-05-01 10:36 | 28.70107 | -98.10876 | 37944 ft | 406 kts | 317° |
| 2026-05-01 10:36 | 28.72384 | -98.12788 | 37667 ft | 405 kts | 317° |
| 2026-05-01 10:37 | 28.74637 | -98.14684 | 37123 ft | 401 kts | 316° |
| 2026-05-01 10:37 | 28.79147 | -98.18486 | 35806 ft | 400 kts | 316° |
| 2026-05-01 10:37 | 28.81409 | -98.20396 | 35119 ft | 401 kts | 316° |
| 2026-05-01 10:38 | 28.83620 | -98.22265 | 34449 ft | 401 kts | 316° |
| 2026-05-01 10:38 | 28.85887 | -98.24181 | 33758 ft | 401 kts | 316° |
| 2026-05-01 10:38 | 28.88112 | -98.26063 | 33128 ft | 400 kts | 315° |
| 2026-05-01 10:38 | 28.90395 | -98.27954 | 32568 ft | 400 kts | 318° |
| 2026-05-01 10:39 | 28.92817 | -98.29568 | 32010 ft | 405 kts | 324° |
| 2026-05-01 10:39 | 28.95426 | -98.30875 | 31462 ft | 408 kts | 329° |
| 2026-05-01 10:39 | 28.98086 | -98.31990 | 30948 ft | 407 kts | 333° |
| 2026-05-01 10:39 | 28.99907 | -98.32663 | 30571 ft | 406 kts | 334° |
| 2026-05-01 10:40 | 29.02601 | -98.33618 | 30029 ft | 403 kts | 335° |
| 2026-05-01 10:40 | 29.05274 | -98.34564 | 29494 ft | 400 kts | 335° |
| 2026-05-01 10:40 | 29.08003 | -98.35307 | 28948 ft | 403 kts | 342° |
| 2026-05-01 10:40 | 29.10851 | -98.35702 | 28382 ft | 407 kts | 348° |
| 2026-05-01 10:41 | 29.13676 | -98.35805 | 27825 ft | 407 kts | 351° |
| 2026-05-01 10:41 | 29.16502 | -98.35791 | 27267 ft | 406 kts | 352° |
| 2026-05-01 10:41 | 29.22121 | -98.35694 | 26147 ft | 401 kts | 353° |
| 2026-05-01 10:42 | 29.24887 | -98.35667 | 25595 ft | 399 kts | 352° |
| 2026-05-01 10:42 | 29.27651 | -98.35639 | 25044 ft | 396 kts | 352° |
| 2026-05-01 10:42 | 29.30395 | -98.35608 | 24497 ft | 394 kts | 352° |
| 2026-05-01 10:42 | 29.33156 | -98.35576 | 23946 ft | 391 kts | 352° |
| 2026-05-01 10:43 | 29.35863 | -98.35542 | 23402 ft | 389 kts | 352° |
| 2026-05-01 10:43 | 29.38580 | -98.35509 | 22852 ft | 387 kts | 352° |
| 2026-05-01 10:43 | 29.41208 | -98.35475 | 22321 ft | 385 kts | 352° |
| 2026-05-01 10:43 | 29.43905 | -98.35441 | 21776 ft | 383 kts | 352° |
| 2026-05-01 10:44 | 29.46554 | -98.35408 | 21242 ft | 380 kts | 352° |
| 2026-05-01 10:44 | 29.49203 | -98.35374 | 20705 ft | 378 kts | 352° |
| 2026-05-01 10:44 | 29.51843 | -98.35341 | 20161 ft | 376 kts | 352° |
| 2026-05-01 10:44 | 29.54462 | -98.35302 | 19592 ft | 376 kts | 353° |
| 2026-05-01 10:45 | 29.57080 | -98.35016 | 19086 ft | 379 kts | 1° |
| 2026-05-01 10:45 | 29.59671 | -98.34343 | 18539 ft | 385 kts | 10° |
| 2026-05-01 10:45 | 29.62220 | -98.33262 | 17980 ft | 387 kts | 15° |
| 2026-05-01 10:45 | 29.64678 | -98.32103 | 17435 ft | 387 kts | 15° |
| 2026-05-01 10:46 | 29.67190 | -98.30917 | 16876 ft | 385 kts | 15° |
| 2026-05-01 10:46 | 29.69676 | -98.29784 | 16311 ft | 384 kts | 14° |
| 2026-05-01 10:46 | 29.72161 | -98.28660 | 15729 ft | 386 kts | 14° |
| 2026-05-01 10:46 | 29.74706 | -98.27519 | 15145 ft | 399 kts | 14° |
| 2026-05-01 10:47 | 29.77283 | -98.26124 | 14528 ft | 424 kts | 28° |
| 2026-05-01 10:47 | 29.79422 | -98.23796 | 14238 ft | 426 kts | 52° |
| 2026-05-01 10:47 | 29.80870 | -98.20837 | 14082 ft | 415 kts | 68° |
| 2026-05-01 10:47 | 29.81801 | -98.17775 | 13845 ft | 400 kts | 78° |
| 2026-05-01 10:48 | 29.82393 | -98.14686 | 13342 ft | 394 kts | 84° |
| 2026-05-01 10:48 | 29.82871 | -98.11604 | 12887 ft | 389 kts | 84° |
| 2026-05-01 10:48 | 29.83385 | -98.08552 | 12410 ft | 385 kts | 83° |
| 2026-05-01 10:48 | 29.83971 | -98.05608 | 12194 ft | 374 kts | 81° |
| 2026-05-01 10:49 | 29.84574 | -98.02698 | 12075 ft | 358 kts | 82° |
| 2026-05-01 10:49 | 29.85153 | -97.99978 | 11968 ft | 343 kts | 81° |
| 2026-05-01 10:49 | 29.85719 | -97.97386 | 11867 ft | 328 kts | 82° |
| 2026-05-01 10:49 | 29.86251 | -97.94915 | 11704 ft | 310 kts | 79° |
| 2026-05-01 10:50 | 29.86780 | -97.92568 | 11281 ft | 301 kts | 81° |
| 2026-05-01 10:50 | 29.87277 | -97.90243 | 10840 ft | 293 kts | 82° |
| 2026-05-01 10:50 | 29.87759 | -97.87981 | 10346 ft | 288 kts | 82° |
| 2026-05-01 10:50 | 29.88233 | -97.85761 | 9839 ft | 283 kts | 82° |
| 2026-05-01 10:51 | 29.88695 | -97.83589 | 9390 ft | 277 kts | 81° |
| 2026-05-01 10:51 | 29.89152 | -97.81453 | 8879 ft | 273 kts | 81° |
| 2026-05-01 10:51 | 29.89607 | -97.79318 | 8324 ft | 271 kts | 80° |
| 2026-05-01 10:51 | 29.90058 | -97.77212 | 7778 ft | 269 kts | 79° |
| 2026-05-01 10:52 | 29.90501 | -97.75143 | 7258 ft | 266 kts | 79° |
| 2026-05-01 10:52 | 29.90939 | -97.73093 | 6729 ft | 263 kts | 79° |
| 2026-05-01 10:52 | 29.91382 | -97.71022 | 6184 ft | 261 kts | 79° |
| 2026-05-01 10:52 | 29.91814 | -97.69001 | 5678 ft | 257 kts | 78° |
| 2026-05-01 10:53 | 29.92258 | -97.67049 | 5376 ft | 247 kts | 72° |
| 2026-05-01 10:53 | 29.93218 | -97.65510 | 5216 ft | 236 kts | 38° |
| 2026-05-01 10:53 | 29.94729 | -97.64916 | 5101 ft | 224 kts | 6° |
| 2026-05-01 10:53 | 29.96248 | -97.64961 | 4906 ft | 215 kts | 359° |
| 2026-05-01 10:54 | 29.97722 | -97.65072 | 4590 ft | 213 kts | 357° |
| 2026-05-01 10:54 | 29.99192 | -97.65186 | 4237 ft | 212 kts | 359° |
| 2026-05-01 10:54 | 30.00646 | -97.65246 | 4013 ft | 204 kts | 0° |
| 2026-05-01 10:54 | 30.02006 | -97.65292 | 3883 ft | 187 kts | 1° |
| 2026-05-01 10:55 | 30.03294 | -97.65330 | 3451 ft | 186 kts | 1° |
| 2026-05-01 10:55 | 30.04592 | -97.65369 | 2996 ft | 186 kts | 2° |
| 2026-05-01 10:55 | 30.05870 | -97.65406 | 2644 ft | 184 kts | 2° |
| 2026-05-01 10:55 | 30.07173 | -97.65443 | 2467 ft | 183 kts | 2° |
| 2026-05-01 10:56 | 30.08382 | -97.65476 | 2380 ft | 162 kts | 3° |
| 2026-05-01 10:56 | 30.09423 | -97.65503 | 2296 ft | 139 kts | 4° |
| 2026-05-01 10:56 | 30.10317 | -97.65527 | 2094 ft | 122 kts | 6° |
| 2026-05-01 10:56 | 30.11155 | -97.65549 | 1786 ft | 118 kts | 7° |
| 2026-05-01 10:57 | 30.11967 | -97.65570 | 1552 ft | 113 kts | 8° |
| 2026-05-01 10:57 | 30.12731 | -97.65589 | 1449 ft | 110 kts | 7° |
| 2026-05-01 10:57 | 30.13507 | -97.65608 | 1388 ft | 111 kts | 6° |
| 2026-05-01 10:57 | 30.14287 | -97.65627 | 1264 ft | 113 kts | 4° |
| 2026-05-01 10:58 | 30.15069 | -97.65645 | 1118 ft | 113 kts | 2° |
| 2026-05-01 10:58 | 30.15865 | -97.65666 | 973 ft | 114 kts | 0° |
| 2026-05-01 10:58 | 30.16665 | -97.65687 | 831 ft | 116 kts | 359° |
| 2026-05-01 10:58 | 30.17474 | -97.65710 | 688 ft | 116 kts | 359° |
| 2026-05-01 10:59 | 30.18276 | -97.65733 | 563 ft | 114 kts | 358° |
| 2026-05-01 10:59 | 30.18979 | -97.65758 | 551 ft | 84 kts | 358° |
| 2026-05-01 10:59 | 30.19376 | -97.65773 | 550 ft | 41 kts | 358° |
| 2026-05-01 10:59 | 30.19626 | -97.65784 | 550 ft | 33 kts | 351° |
| 2026-05-01 11:00 | 30.19837 | -97.65853 | 550 ft | 30 kts | 336° |
| 2026-05-01 11:00 | 30.19911 | -97.66024 | 550 ft | 26 kts | 267° |
| 2026-05-01 11:00 | 30.19901 | -97.66235 | 550 ft | 22 kts | 267° |
| 2026-05-01 11:00 | 30.19890 | -97.66399 | 550 ft | 18 kts | 268° |
| 2026-05-01 11:01 | 30.19936 | -97.66503 | 550 ft | 14 kts | 353° |
| 2026-05-01 11:01 | 30.20036 | -97.66514 | 550 ft | 15 kts | 358° |
| 2026-05-01 11:01 | 30.20139 | -97.66518 | 550 ft | 14 kts | 358° |
| 2026-05-01 11:01 | 30.20188 | -97.66520 | 550 ft | 4 kts | 358° |
| 2026-05-01 11:02 | 30.20204 | -97.66521 | 550 ft | 1 kts | 357° |